Time;durP1;ratioP1;P1;durP2;ratioP2;P2;SDS_P1;SDS_P2;PMS_P1;PMS_P2;Temp;Humidity;BMP_temperature;BMP_pressure;BME280_temperature;BME280_humidity;BME280_pressure;Samples;Min_cycle;Max_cycle;Signal;HPM_P1;HPM_P2
2023/10/26 00:00:14;;;;;;;14.90;12.30;;;9.60;99.90;;;;;;5183254;28;20677;-50
2023/10/26 00:02:47;;;;;;;16.40;13.10;;;9.60;99.90;;;;;;5183515;28;20185;-49
2023/10/26 00:05:18;;;;;;;18.30;12.00;;;9.60;99.90;;;;;;5182162;28;20530;-50
2023/10/26 00:07:49;;;;;;;23.03;12.80;;;9.60;99.90;;;;;;5184768;28;20489;-51
2023/10/26 00:10:19;;;;;;;15.70;12.33;;;9.60;99.90;;;;;;5182974;28;20423;-49
2023/10/26 00:12:50;;;;;;;18.10;12.47;;;9.60;99.90;;;;;;5184001;28;20204;-49
2023/10/26 00:15:21;;;;;;;16.77;12.00;;;9.60;99.90;;;;;;5179776;28;20184;-49
2023/10/26 00:17:52;;;;;;;17.77;14.00;;;9.60;99.90;;;;;;5185755;28;20184;-49
2023/10/26 00:20:23;;;;;;;19.00;14.53;;;9.60;99.90;;;;;;5186837;28;20685;-49
2023/10/26 00:22:53;;;;;;;20.43;13.30;;;9.60;99.90;;;;;;5184844;28;20180;-49
2023/10/26 00:25:24;;;;;;;19.70;14.23;;;9.60;99.90;;;;;;5178410;28;20844;-49
2023/10/26 00:27:55;;;;;;;23.60;13.47;;;9.60;99.90;;;;;;5200766;28;20181;-51
2023/10/26 00:30:26;;;;;;;16.40;13.00;;;9.60;99.90;;;;;;5202136;28;20190;-50
2023/10/26 00:33:00;;;;;;;16.30;12.83;;;9.60;99.90;;;;;;5185140;28;20274;-49
2023/10/26 00:35:30;;;;;;;20.77;14.13;;;9.60;99.90;;;;;;5182538;28;20592;-51
2023/10/26 00:38:01;;;;;;;19.90;14.33;;;9.50;99.90;;;;;;5187549;28;20442;-51
2023/10/26 00:40:32;;;;;;;21.70;14.60;;;9.50;99.90;;;;;;5182792;28;20203;-49
2023/10/26 00:43:06;;;;;;;14.90;13.20;;;9.50;99.90;;;;;;5185754;28;20603;-49
2023/10/26 00:45:37;;;;;;;16.27;12.33;;;9.50;99.90;;;;;;5185328;28;20189;-51
2023/10/26 00:48:08;;;;;;;19.53;14.23;;;9.50;99.90;;;;;;5185807;28;20455;-49
2023/10/26 00:50:38;;;;;;;17.77;13.73;;;9.50;99.90;;;;;;5186015;28;20514;-49
2023/10/26 00:53:11;;;;;;;18.33;13.80;;;9.50;99.90;;;;;;5186614;28;20209;-50
2023/10/26 00:55:45;;;;;;;17.70;14.03;;;9.40;99.90;;;;;;5184026;28;20234;-49
2023/10/26 00:58:17;;;;;;;19.00;14.43;;;9.40;99.90;;;;;;5181051;28;20467;-50
2023/10/26 01:00:48;;;;;;;19.13;15.83;;;9.30;99.90;;;;;;5184177;28;20420;-48
2023/10/26 01:03:19;;;;;;;20.20;15.40;;;9.30;99.90;;;;;;5186881;28;20936;-50
2023/10/26 01:05:49;;;;;;;20.77;15.60;;;9.30;99.90;;;;;;5185423;28;20196;-51
2023/10/26 01:08:21;;;;;;;30.40;16.63;;;9.30;99.90;;;;;;5185763;28;20448;-50
2023/10/26 01:10:52;;;;;;;24.87;16.23;;;9.30;99.90;;;;;;5186051;28;20250;-49
2023/10/26 01:13:23;;;;;;;24.37;17.37;;;9.20;99.90;;;;;;5182546;28;20462;-49
2023/10/26 01:15:54;;;;;;;31.50;19.67;;;9.20;99.90;;;;;;5185794;28;20490;-50
2023/10/26 01:18:25;;;;;;;32.10;19.47;;;9.10;99.90;;;;;;5185268;28;20462;-49
2023/10/26 01:20:58;;;;;;;29.23;19.20;;;9.10;99.90;;;;;;5179445;28;20432;-49
2023/10/26 01:23:29;;;;;;;31.50;21.10;;;9.10;99.90;;;;;;5181372;28;20180;-50
2023/10/26 01:26:00;;;;;;;37.00;21.60;;;9.10;99.90;;;;;;5182299;28;20423;-48
2023/10/26 01:28:30;;;;;;;31.60;21.07;;;9.10;99.90;;;;;;5181435;28;20696;-50
2023/10/26 01:31:01;;;;;;;34.37;23.20;;;9.10;99.90;;;;;;5178578;28;20541;-49
2023/10/26 01:33:32;;;;;;;38.57;24.17;;;9.10;99.90;;;;;;5184477;28;21038;-50
2023/10/26 01:36:02;;;;;;;33.03;23.47;;;9.10;99.90;;;;;;5186414;28;20704;-48
2023/10/26 01:38:33;;;;;;;36.60;22.53;;;9.00;99.90;;;;;;5183567;28;20750;-52
2023/10/26 01:41:07;;;;;;;46.30;25.53;;;9.00;99.90;;;;;;5186512;28;20212;-49
2023/10/26 01:43:37;;;;;;;45.73;27.90;;;9.00;99.90;;;;;;5182307;28;20254;-49
2023/10/26 01:46:08;;;;;;;49.07;26.63;;;9.00;99.90;;;;;;5183140;28;20463;-51
2023/10/26 01:48:39;;;;;;;50.33;29.27;;;9.00;99.90;;;;;;5176671;28;20609;-49
2023/10/26 01:51:10;;;;;;;47.73;29.33;;;9.00;99.90;;;;;;5184597;28;20177;-49
2023/10/26 01:53:40;;;;;;;60.73;30.80;;;9.00;99.90;;;;;;5183157;28;20474;-51
2023/10/26 01:56:11;;;;;;;57.67;33.20;;;9.00;99.90;;;;;;5186445;28;20213;-48
2023/10/26 01:58:42;;;;;;;54.63;29.87;;;9.00;99.90;;;;;;5183572;28;20230;-49
2023/10/26 02:01:13;;;;;;;61.23;33.20;;;8.90;99.90;;;;;;5182117;28;20447;-48
2023/10/26 02:03:44;;;;;;;57.10;31.27;;;9.00;99.90;;;;;;5184798;28;20235;-49
2023/10/26 02:06:15;;;;;;;63.83;34.50;;;9.00;99.90;;;;;;5185641;28;20443;-48
2023/10/26 02:08:45;;;;;;;75.03;36.17;;;9.00;99.90;;;;;;5184309;28;20207;-49
2023/10/26 02:11:16;;;;;;;62.33;33.93;;;9.00;99.90;;;;;;5187614;28;20188;-48
2023/10/26 02:13:47;;;;;;;58.10;33.60;;;9.00;99.90;;;;;;5183847;28;20203;-50
2023/10/26 02:16:20;;;;;;;76.83;38.27;;;9.00;99.90;;;;;;5185259;28;20629;-51
2023/10/26 02:18:50;;;;;;;69.60;36.90;;;8.90;99.90;;;;;;5183726;28;20188;-49
2023/10/26 02:21:21;;;;;;;59.77;35.20;;;9.00;99.90;;;;;;5180461;28;20446;-49
2023/10/26 02:23:52;;;;;;;85.30;39.40;;;8.90;99.90;;;;;;5184170;28;20172;-49
2023/10/26 02:26:23;;;;;;;72.93;36.53;;;9.00;99.90;;;;;;5183379;28;20466;-50
2023/10/26 02:28:53;;;;;;;77.00;37.97;;;8.90;99.90;;;;;;5180956;28;20239;-50
2023/10/26 02:31:24;;;;;;;73.07;37.43;;;9.00;99.90;;;;;;5185626;28;20187;-50
2023/10/26 02:33:55;;;;;;;91.37;41.37;;;9.00;99.90;;;;;;5184389;28;20688;-49
2023/10/26 02:36:26;;;;;;;72.87;38.77;;;8.90;99.90;;;;;;5184053;28;20215;-50
2023/10/26 02:38:57;;;;;;;77.00;37.00;;;9.00;99.90;;;;;;5180066;28;20271;-48
2023/10/26 02:41:27;;;;;;;78.73;39.40;;;8.90;99.90;;;;;;5186581;28;20938;-49
2023/10/26 02:43:58;;;;;;;83.30;40.33;;;9.00;99.90;;;;;;5183436;28;20191;-49
2023/10/26 02:46:29;;;;;;;81.27;39.97;;;9.00;99.90;;;;;;5184107;28;20180;-49
2023/10/26 02:48:59;;;;;;;91.90;40.50;;;9.00;99.90;;;;;;5183980;28;20338;-50
2023/10/26 02:51:30;;;;;;;91.33;38.93;;;9.00;99.90;;;;;;5180523;28;20199;-49
2023/10/26 02:54:01;;;;;;;91.50;39.77;;;9.00;99.90;;;;;;5184198;28;20878;-50
2023/10/26 02:56:32;;;;;;;113.60;44.80;;;9.00;99.90;;;;;;5164175;28;20176;-50
2023/10/26 02:59:02;;;;;;;109.23;45.00;;;9.00;99.90;;;;;;5178523;28;20207;-50
2023/10/26 03:01:34;;;;;;;112.17;44.03;;;9.00;99.90;;;;;;5183416;28;20635;-50
2023/10/26 03:04:05;;;;;;;125.80;48.90;;;9.00;99.90;;;;;;5183943;28;20176;-50
2023/10/26 03:06:40;;;;;;;90.30;39.90;;;9.00;99.90;;;;;;5184280;28;20846;-50
2023/10/26 03:09:13;;;;;;;110.30;44.37;;;9.00;99.90;;;;;;5181590;28;20463;-49
2023/10/26 03:11:43;;;;;;;96.40;41.77;;;9.00;99.90;;;;;;5182876;28;20551;-51
2023/10/26 03:14:14;;;;;;;104.37;44.80;;;9.00;99.90;;;;;;5183121;28;20462;-50
2023/10/26 03:16:45;;;;;;;92.80;42.80;;;9.00;99.90;;;;;;5180927;28;20238;-51
2023/10/26 03:19:16;;;;;;;84.43;39.77;;;9.00;99.90;;;;;;5183629;28;20212;-49
2023/10/26 03:21:46;;;;;;;116.23;45.37;;;9.00;99.90;;;;;;5183197;28;20195;-51
2023/10/26 03:24:17;;;;;;;91.60;38.43;;;9.00;99.90;;;;;;5183834;28;20215;-49
2023/10/26 03:26:48;;;;;;;103.10;44.33;;;9.00;99.90;;;;;;5183917;28;20184;-50
2023/10/26 03:29:21;;;;;;;85.50;41.30;;;9.00;99.90;;;;;;5181056;28;20323;-51
2023/10/26 03:31:51;;;;;;;95.90;40.67;;;9.00;99.90;;;;;;5183675;28;20199;-50
2023/10/26 03:34:22;;;;;;;90.90;39.30;;;9.00;99.90;;;;;;5182386;28;20471;-51
2023/10/26 03:36:52;;;;;;;117.40;43.37;;;9.00;99.90;;;;;;5184058;28;20191;-49
2023/10/26 03:39:23;;;;;;;91.63;39.57;;;9.00;99.90;;;;;;5183071;28;20291;-52
2023/10/26 03:41:54;;;;;;;77.73;39.40;;;9.00;99.90;;;;;;5184045;28;20187;-52
2023/10/26 03:44:25;;;;;;;131.93;48.03;;;9.00;99.90;;;;;;5185953;28;20180;-51
2023/10/26 03:46:55;;;;;;;93.60;40.50;;;9.00;99.90;;;;;;5185839;28;20180;-50
2023/10/26 03:49:26;;;;;;;121.00;45.10;;;9.00;99.90;;;;;;5185606;28;20223;-52
2023/10/26 03:51:56;;;;;;;96.67;41.47;;;9.00;99.90;;;;;;5185749;28;20181;-50
2023/10/26 03:54:27;;;;;;;76.70;37.40;;;9.00;99.90;;;;;;5183726;28;20204;-50
2023/10/26 03:56:58;;;;;;;133.97;45.90;;;9.00;99.90;;;;;;5184009;28;20188;-49
2023/10/26 03:59:29;;;;;;;94.13;38.60;;;9.00;99.90;;;;;;5188571;28;20209;-50
2023/10/26 04:02:00;;;;;;;102.23;41.17;;;9.00;99.90;;;;;;5183823;28;20427;-49
2023/10/26 04:04:30;;;;;;;137.97;46.97;;;9.10;99.90;;;;;;5184424;28;20180;-52
2023/10/26 04:07:01;;;;;;;157.77;50.90;;;9.10;99.90;;;;;;5183146;28;20189;-50
2023/10/26 04:09:32;;;;;;;89.87;39.67;;;9.10;99.90;;;;;;5184616;28;20212;-50
2023/10/26 04:12:04;;;;;;;123.83;44.57;;;9.10;99.90;;;;;;5186872;28;20184;-50
2023/10/26 04:14:34;;;;;;;111.63;43.70;;;9.10;99.90;;;;;;5189405;28;20467;-52
2023/10/26 04:17:05;;;;;;;132.50;47.70;;;9.10;99.90;;;;;;5185070;28;20442;-50
2023/10/26 04:19:36;;;;;;;94.90;40.13;;;9.10;99.90;;;;;;5183958;28;20212;-52
2023/10/26 04:22:06;;;;;;;106.30;43.50;;;9.20;99.90;;;;;;5185247;28;20665;-52
2023/10/26 04:24:37;;;;;;;81.13;37.53;;;9.10;99.90;;;;;;5186942;28;20255;-50
2023/10/26 04:27:08;;;;;;;95.47;40.50;;;9.20;99.90;;;;;;5188681;28;20280;-51
2023/10/26 04:29:39;;;;;;;101.40;39.70;;;9.10;99.90;;;;;;5186070;28;20700;-50
2023/10/26 04:32:09;;;;;;;79.27;33.63;;;9.20;99.90;;;;;;5186567;28;20181;-49
2023/10/26 04:34:43;;;;;;;96.40;37.23;;;9.10;99.90;;;;;;5185627;28;20212;-50
2023/10/26 04:37:14;;;;;;;59.13;30.50;;;9.10;99.90;;;;;;5185666;28;20262;-51
2023/10/26 04:39:45;;;;;;;50.00;26.80;;;9.20;99.90;;;;;;5183429;28;20469;-50
2023/10/26 04:42:16;;;;;;;84.37;35.97;;;9.20;99.90;;;;;;5183497;28;20220;-50
2023/10/26 04:44:46;;;;;;;57.50;29.30;;;9.20;99.90;;;;;;5186750;28;20553;-49
2023/10/26 04:47:17;;;;;;;57.23;27.77;;;9.20;99.90;;;;;;5169477;28;20537;-49
2023/10/26 04:49:48;;;;;;;55.87;29.90;;;9.20;99.90;;;;;;5182645;28;20216;-50
2023/10/26 04:52:20;;;;;;;83.00;34.07;;;9.20;99.90;;;;;;5185155;28;20188;-50
2023/10/26 04:54:54;;;;;;;106.93;38.93;;;9.10;99.90;;;;;;5165884;28;20200;-50
2023/10/26 04:57:24;;;;;;;99.50;37.83;;;9.10;99.90;;;;;;5179657;28;20449;-51
2023/10/26 04:59:55;;;;;;;87.03;36.10;;;9.10;99.90;;;;;;5180960;28;20447;-50
2023/10/26 05:02:26;;;;;;;88.63;37.57;;;9.20;99.90;;;;;;5183178;28;20192;-52
2023/10/26 05:04:57;;;;;;;63.77;31.20;;;9.20;99.90;;;;;;5185316;28;20173;-50
2023/10/26 05:07:27;;;;;;;112.90;42.13;;;9.10;99.90;;;;;;5187393;28;20184;-50
2023/10/26 05:09:59;;;;;;;131.07;43.90;;;9.10;99.90;;;;;;5182204;28;20292;-50
2023/10/26 05:12:29;;;;;;;58.07;30.70;;;9.10;99.90;;;;;;5179497;28;20191;-50
2023/10/26 05:15:00;;;;;;;81.57;37.23;;;9.10;99.90;;;;;;5175009;28;20440;-50
2023/10/26 05:17:31;;;;;;;72.77;33.90;;;9.10;99.90;;;;;;5182067;28;20653;-49
2023/10/26 05:20:03;;;;;;;113.87;40.57;;;9.10;99.90;;;;;;5187705;28;20204;-48
2023/10/26 05:22:33;;;;;;;138.83;43.73;;;9.10;99.90;;;;;;5185247;28;20268;-50
2023/10/26 05:25:04;;;;;;;70.30;33.10;;;9.10;99.90;;;;;;5184485;28;21059;-51
2023/10/26 05:27:35;;;;;;;86.33;35.73;;;9.10;99.90;;;;;;5185291;28;20211;-50
2023/10/26 05:30:06;;;;;;;63.13;30.47;;;9.10;99.90;;;;;;5179133;28;20470;-51
2023/10/26 05:32:38;;;;;;;94.83;35.67;;;9.10;99.90;;;;;;5185766;28;20180;-50
2023/10/26 05:35:09;;;;;;;76.87;32.20;;;9.10;99.90;;;;;;5195208;28;20438;-51
2023/10/26 05:37:40;;;;;;;85.20;37.50;;;9.00;99.90;;;;;;5184291;28;20944;-49
2023/10/26 05:40:11;;;;;;;78.97;29.73;;;9.10;99.90;;;;;;5199700;28;20181;-52
2023/10/26 05:42:42;;;;;;;68.07;28.63;;;9.00;99.90;;;;;;5183688;28;20259;-50
2023/10/26 05:45:13;;;;;;;84.70;32.57;;;9.00;99.90;;;;;;5179609;28;21189;-51
2023/10/26 05:47:43;;;;;;;90.10;32.20;;;9.00;99.90;;;;;;5183795;28;20176;-50
2023/10/26 05:50:14;;;;;;;78.20;32.90;;;9.10;99.90;;;;;;5183228;28;20809;-50
2023/10/26 05:52:45;;;;;;;69.87;31.63;;;9.10;99.90;;;;;;5182460;28;20774;-51
2023/10/26 05:55:16;;;;;;;59.97;29.67;;;9.10;99.90;;;;;;5184694;28;20793;-51
2023/10/26 05:57:47;;;;;;;74.87;31.23;;;9.10;99.90;;;;;;5179010;28;20211;-50
2023/10/26 06:00:17;;;;;;;75.73;33.70;;;9.10;99.90;;;;;;5184192;28;20420;-51
2023/10/26 06:02:48;;;;;;;69.73;29.23;;;9.10;99.90;;;;;;5182279;28;20177;-51
2023/10/26 06:05:19;;;;;;;68.90;31.20;;;9.10;99.90;;;;;;5183608;28;20638;-50
2023/10/26 06:07:50;;;;;;;75.87;31.00;;;9.10;99.90;;;;;;5182478;28;20184;-51
2023/10/26 06:10:21;;;;;;;73.50;30.70;;;9.10;99.90;;;;;;5182804;28;20450;-51
2023/10/26 06:12:51;;;;;;;117.67;38.13;;;9.10;99.90;;;;;;5184784;28;20322;-49
2023/10/26 06:15:22;;;;;;;65.87;29.30;;;9.20;99.90;;;;;;5183184;28;20176;-50
2023/10/26 06:17:54;;;;;;;75.23;30.30;;;9.10;99.90;;;;;;5180496;28;20191;-49
2023/10/26 06:20:27;;;;;;;117.20;37.67;;;9.10;99.90;;;;;;5171285;28;20947;-50
2023/10/26 06:22:58;;;;;;;72.20;31.43;;;9.10;99.90;;;;;;5177086;28;20439;-49
2023/10/26 06:25:29;;;;;;;78.03;31.20;;;9.10;99.90;;;;;;5185289;28;20777;-52
2023/10/26 06:27:59;;;;;;;109.20;36.00;;;9.10;99.90;;;;;;5183478;28;20542;-49
2023/10/26 06:30:31;;;;;;;82.27;31.37;;;9.10;99.90;;;;;;5181200;28;20653;-51
2023/10/26 06:33:02;;;;;;;35.17;20.60;;;9.10;99.90;;;;;;5183113;28;20204;-50
2023/10/26 06:35:35;;;;;;;69.77;29.40;;;9.20;99.90;;;;;;5194755;28;20797;-48
2023/10/26 06:38:06;;;;;;;87.00;30.67;;;9.20;99.90;;;;;;5179534;28;20335;-50
2023/10/26 06:40:36;;;;;;;63.63;27.27;;;9.20;99.90;;;;;;5177121;28;20984;-50
2023/10/26 06:43:07;;;;;;;76.30;30.17;;;9.20;99.90;;;;;;5175785;28;20868;-50
2023/10/26 06:45:38;;;;;;;78.73;30.20;;;9.20;99.90;;;;;;5176448;28;20204;-51
2023/10/26 06:48:09;;;;;;;47.67;22.53;;;9.10;99.90;;;;;;5184414;28;20200;-51
2023/10/26 06:50:39;;;;;;;96.07;31.53;;;9.10;99.90;;;;;;5179656;28;20829;-50
2023/10/26 06:53:12;;;;;;;81.80;28.87;;;9.20;99.90;;;;;;5180665;28;20274;-50
2023/10/26 06:55:42;;;;;;;92.63;30.23;;;9.20;99.90;;;;;;5181234;28;20637;-51
2023/10/26 06:58:13;;;;;;;82.20;29.27;;;9.40;99.90;;;;;;5182816;28;20612;-51
2023/10/26 07:00:44;;;;;;;57.13;27.00;;;9.20;99.90;;;;;;5178718;28;20195;-51
2023/10/26 07:03:14;;;;;;;58.00;26.53;;;9.20;99.90;;;;;;5180503;28;20180;-52
2023/10/26 07:05:47;;;;;;;131.10;36.70;;;9.20;99.90;;;;;;5179495;28;20569;-50
2023/10/26 07:08:18;;;;;;;72.13;29.97;;;9.20;99.90;;;;;;5190737;28;20303;-50
2023/10/26 07:10:48;;;;;;;83.03;28.67;;;9.20;99.90;;;;;;5176785;28;20446;-51
2023/10/26 07:13:19;;;;;;;84.87;29.53;;;9.20;99.90;;;;;;5180755;28;20291;-52
2023/10/26 07:15:50;;;;;;;68.73;27.20;;;9.20;99.90;;;;;;5182965;28;20180;-52
2023/10/26 07:18:20;;;;;;;35.87;21.63;;;9.20;99.90;;;;;;5185350;28;20204;-51
2023/10/26 07:20:51;;;;;;;76.67;32.60;;;9.20;99.90;;;;;;5173289;28;20195;-50
2023/10/26 07:23:22;;;;;;;90.10;32.70;;;9.20;99.90;;;;;;5180930;28;20665;-52
2023/10/26 07:25:52;;;;;;;80.83;31.57;;;9.20;99.90;;;;;;5179293;28;20199;-51
2023/10/26 07:28:23;;;;;;;48.33;25.70;;;9.20;99.90;;;;;;5185807;28;20215;-51
2023/10/26 07:30:54;;;;;;;86.27;34.50;;;9.30;99.90;;;;;;5180663;28;20184;-51
2023/10/26 07:33:24;;;;;;;74.90;31.40;;;9.20;99.90;;;;;;5180651;28;20231;-52
2023/10/26 07:35:58;;;;;;;82.23;33.60;;;9.30;99.90;;;;;;5173356;28;20234;-50
2023/10/26 07:38:29;;;;;;;113.17;36.60;;;9.30;99.90;;;;;;5179293;28;20223;-51
2023/10/26 07:41:03;;;;;;;84.57;31.67;;;9.30;99.90;;;;;;5180625;28;20473;-49
2023/10/26 07:43:34;;;;;;;100.83;35.50;;;9.30;99.90;;;;;;5179165;28;20200;-51
2023/10/26 07:46:05;;;;;;;103.13;34.67;;;9.30;99.90;;;;;;5178238;28;20451;-50
2023/10/26 07:48:36;;;;;;;107.87;35.37;;;9.30;99.90;;;;;;5182715;28;20462;-50
2023/10/26 07:51:07;;;;;;;59.33;26.57;;;9.30;99.90;;;;;;5183735;28;20192;-50
2023/10/26 07:53:37;;;;;;;77.10;29.90;;;9.30;99.90;;;;;;5178557;28;20203;-50
2023/10/26 07:56:08;;;;;;;54.57;23.73;;;9.40;99.90;;;;;;5180869;28;20227;-49
2023/10/26 07:58:39;;;;;;;100.33;37.37;;;9.40;99.90;;;;;;5180307;28;20728;-49
2023/10/26 08:01:10;;;;;;;100.77;34.63;;;9.40;99.90;;;;;;5175817;28;20185;-48
2023/10/26 08:03:41;;;;;;;96.10;35.03;;;9.40;99.90;;;;;;5179016;28;20184;-50
2023/10/26 08:06:12;;;;;;;116.57;36.53;;;9.50;99.90;;;;;;5176824;28;20518;-50
2023/10/26 08:08:43;;;;;;;109.90;36.00;;;9.40;99.90;;;;;;5179247;28;20550;-48
2023/10/26 08:11:14;;;;;;;117.10;35.93;;;9.40;99.90;;;;;;5171041;28;20864;-52
2023/10/26 08:13:45;;;;;;;67.37;30.23;;;9.40;99.90;;;;;;5178609;28;20672;-49
2023/10/26 08:16:16;;;;;;;67.33;28.93;;;9.50;99.90;;;;;;5179754;28;20455;-51
2023/10/26 08:18:47;;;;;;;68.50;29.30;;;9.60;99.90;;;;;;5175771;28;20908;-50
2023/10/26 08:21:18;;;;;;;64.17;26.53;;;9.60;99.90;;;;;;5179760;28;20960;-50
2023/10/26 08:23:49;;;;;;;74.63;29.40;;;9.60;99.90;;;;;;5178837;28;20184;-50
2023/10/26 08:26:20;;;;;;;92.60;33.80;;;9.60;99.90;;;;;;5175857;28;20181;-50
2023/10/26 08:28:51;;;;;;;97.23;33.03;;;9.60;99.90;;;;;;5175934;28;20466;-51
2023/10/26 08:31:22;;;;;;;72.57;30.90;;;9.60;99.90;;;;;;5181280;28;20458;-50
2023/10/26 08:33:52;;;;;;;64.40;28.17;;;9.60;99.90;;;;;;5183030;28;20215;-51
2023/10/26 08:36:24;;;;;;;74.47;28.73;;;9.60;99.90;;;;;;5181579;28;20443;-50
2023/10/26 08:38:54;;;;;;;70.43;28.63;;;9.70;99.90;;;;;;5182274;28;20208;-51
2023/10/26 08:41:26;;;;;;;116.77;36.97;;;9.80;99.90;;;;;;5181405;28;20519;-53
2023/10/26 08:43:58;;;;;;;40.40;21.80;;;9.70;99.90;;;;;;5187425;28;20191;-51
2023/10/26 08:46:29;;;;;;;105.63;33.93;;;9.80;99.90;;;;;;5185853;28;20435;-51
2023/10/26 08:49:02;;;;;;;44.70;23.37;;;9.80;99.90;;;;;;5186459;28;20455;-52
2023/10/26 08:51:32;;;;;;;124.87;35.30;;;9.90;99.90;;;;;;5184866;28;20536;-50
2023/10/26 08:54:04;;;;;;;88.53;32.50;;;9.90;99.90;;;;;;5184563;28;20871;-50
2023/10/26 08:56:35;;;;;;;47.33;23.23;;;10.00;99.90;;;;;;5184213;28;20185;-49
2023/10/26 08:59:06;;;;;;;68.63;29.53;;;10.00;99.90;;;;;;5184158;28;20454;-49
2023/10/26 09:01:36;;;;;;;41.07;22.07;;;10.10;99.90;;;;;;5184758;28;20180;-51
2023/10/26 09:04:11;;;;;;;76.47;30.27;;;10.10;99.90;;;;;;5183540;28;20292;-50
2023/10/26 09:06:47;;;;;;;79.57;29.50;;;10.20;99.90;;;;;;5169938;28;20192;-52
2023/10/26 09:09:18;;;;;;;74.23;30.00;;;10.20;99.90;;;;;;5182744;28;20446;-53
2023/10/26 09:11:49;;;;;;;82.20;31.53;;;10.20;99.90;;;;;;5181174;28;20478;-52
2023/10/26 09:14:21;;;;;;;58.53;26.80;;;10.20;99.90;;;;;;5176419;28;20927;-50
2023/10/26 09:16:52;;;;;;;36.13;19.43;;;10.20;99.90;;;;;;5183490;28;20234;-51
2023/10/26 09:19:38;;;;;;;43.03;24.17;;;10.10;99.90;;;;;;5173818;28;20506;-51
2023/10/26 09:22:12;;;;;;;56.00;24.07;;;10.20;99.90;;;;;;5176853;28;20586;-51
2023/10/26 09:24:43;;;;;;;80.00;30.90;;;10.20;99.90;;;;;;5184077;28;20431;-50
2023/10/26 09:27:21;;;;;;;30.90;20.77;;;10.20;99.90;;;;;;5159728;28;20505;-51
2023/10/26 09:29:52;;;;;;;54.33;23.73;;;10.20;99.90;;;;;;5179725;28;20207;-51
2023/10/26 09:32:32;;;;;;;60.47;27.10;;;10.10;99.90;;;;;;5181408;28;20439;-50
2023/10/26 09:35:03;;;;;;;61.30;27.13;;;10.10;99.90;;;;;;5190876;28;20471;-51
2023/10/26 09:37:51;;;;;;;40.73;21.97;;;10.00;99.90;;;;;;5180825;28;20443;-50
2023/10/26 09:40:23;;;;;;;37.03;21.70;;;10.00;99.90;;;;;;5171658;28;20448;-49
2023/10/26 09:42:56;;;;;;;33.37;20.80;;;10.00;99.90;;;;;;5162924;28;20458;-52
2023/10/26 09:45:27;;;;;;;49.80;23.17;;;10.00;99.90;;;;;;5179249;28;20473;-49
2023/10/26 09:48:00;;;;;;;40.70;21.47;;;10.00;99.90;;;;;;5182907;28;20447;-50
2023/10/26 09:50:38;;;;;;;41.43;22.30;;;10.00;99.90;;;;;;5178151;28;20475;-51
2023/10/26 09:53:09;;;;;;;59.17;25.30;;;10.00;99.90;;;;;;5184393;28;20986;-50
2023/10/26 09:55:45;;;;;;;59.13;23.67;;;10.00;99.90;;;;;;5178556;28;20439;-50
2023/10/26 09:58:19;;;;;;;45.53;22.30;;;10.10;99.90;;;;;;5176885;28;20494;-51
2023/10/26 10:00:50;;;;;;;38.83;21.80;;;10.20;99.90;;;;;;5177367;28;20505;-51
2023/10/26 10:03:21;;;;;;;51.53;25.77;;;10.10;99.90;;;;;;5183492;28;20443;-50
2023/10/26 10:05:52;;;;;;;41.23;21.30;;;10.20;99.90;;;;;;5185732;28;20196;-49
2023/10/26 10:09:00;;;;;;;43.90;22.80;;;10.20;99.90;;;;;;5189727;28;20203;-51
2023/10/26 10:11:31;;;;;;;44.93;23.70;;;10.20;99.90;;;;;;5186151;28;20200;-50
2023/10/26 10:14:02;;;;;;;35.40;20.93;;;10.20;99.90;;;;;;5181256;28;20459;-51
2023/10/26 10:16:35;;;;;;;75.23;33.17;;;10.20;99.90;;;;;;5192013;28;20191;-50
2023/10/26 10:19:23;;;;;;;32.53;19.30;;;10.20;99.90;;;;;;5179032;28;20197;-51
2023/10/26 10:21:54;;;;;;;59.13;23.70;;;10.20;99.90;;;;;;5184733;28;20416;-49
2023/10/26 10:24:51;;;;;;;35.40;21.30;;;10.20;99.90;;;;;;5183792;28;20761;-50
2023/10/26 10:27:22;;;;;;;48.80;23.60;;;10.30;99.90;;;;;;5167715;28;20203;-51
2023/10/26 10:29:56;;;;;;;51.03;23.57;;;10.30;99.90;;;;;;5178629;28;20562;-49
2023/10/26 10:32:43;;;;;;;45.83;23.90;;;10.30;99.90;;;;;;5183919;28;20191;-51
2023/10/26 10:35:43;;;;;;;47.77;23.77;;;10.30;99.90;;;;;;5179848;28;20797;-51
2023/10/26 10:38:14;;;;;;;52.40;27.20;;;10.30;99.90;;;;;;5175866;28;20542;-51
2023/10/26 10:40:54;;;;;;;112.40;48.27;;;10.30;99.90;;;;;;5186088;28;20527;-52
2023/10/26 10:43:45;;;;;;;35.83;23.13;;;10.30;99.90;;;;;;5187142;28;20196;-51
2023/10/26 10:46:26;;;;;;;50.83;28.13;;;10.30;99.90;;;;;;5186759;28;20450;-50
2023/10/26 10:49:04;;;;;;;55.17;26.00;;;10.30;99.90;;;;;;5193099;28;20457;-51
2023/10/26 10:51:37;;;;;;;74.10;31.60;;;10.30;99.90;;;;;;5183117;28;20439;-50
2023/10/26 10:54:24;;;;;;;74.13;32.30;;;10.40;99.90;;;;;;5178709;28;20821;-51
2023/10/26 10:56:55;;;;;;;90.20;33.07;;;10.40;99.90;;;;;;5179381;28;20435;-50
2023/10/26 10:59:29;;;;;;;63.60;31.23;;;10.50;99.90;;;;;;5183999;28;20481;-52
2023/10/26 11:02:11;;;;;;;87.07;36.87;;;10.60;99.90;;;;;;5178242;28;20235;-50
2023/10/26 11:05:01;;;;;;;96.80;37.60;;;10.60;99.90;;;;;;5182146;28;20818;-53
2023/10/26 11:07:32;;;;;;;61.97;30.30;;;10.50;99.90;;;;;;5175777;28;20516;-51
2023/10/26 11:10:03;;;;;;;47.77;26.50;;;10.60;99.90;;;;;;5177424;28;20839;-51
2023/10/26 11:12:34;;;;;;;121.00;62.40;;;10.60;99.90;;;;;;5178665;28;21335;-51
2023/10/26 11:15:07;;;;;;;61.87;35.53;;;10.60;99.90;;;;;;5175505;28;20562;-52
2023/10/26 11:17:39;;;;;;;70.50;32.53;;;10.60;99.90;;;;;;5179954;28;20436;-54
2023/10/26 11:20:49;;;;;;;44.33;23.20;;;10.50;99.90;;;;;;5175935;28;20451;-51
2023/10/26 11:23:23;;;;;;;60.40;26.50;;;10.50;99.90;;;;;;5179671;28;20556;-51
2023/10/26 11:25:54;;;;;;;38.43;21.87;;;10.60;99.90;;;;;;5177969;28;20431;-51
2023/10/26 11:28:34;;;;;;;60.50;27.43;;;10.60;99.90;;;;;;5182413;28;20546;-50
2023/10/26 11:31:05;;;;;;;36.00;21.10;;;10.70;99.90;;;;;;5181032;28;20954;-52
2023/10/26 11:33:39;;;;;;;47.83;24.23;;;10.60;99.90;;;;;;5179069;28;20463;-50
2023/10/26 11:36:12;;;;;;;51.23;24.40;;;10.60;99.90;;;;;;5178735;28;20188;-52
2023/10/26 11:38:47;;;;;;;35.03;20.33;;;10.50;99.90;;;;;;5179385;28;20545;-50
2023/10/26 11:41:25;;;;;;;75.33;26.57;;;10.50;99.90;;;;;;5178458;28;21038;-51
2023/10/26 11:44:00;;;;;;;45.70;20.87;;;10.40;99.90;;;;;;5178485;28;20446;-53
2023/10/26 11:46:31;;;;;;;64.20;25.20;;;10.40;99.90;;;;;;5180861;28;20439;-50
2023/10/26 11:49:03;;;;;;;20.67;15.53;;;10.50;99.90;;;;;;5179135;28;20502;-50
2023/10/26 11:51:34;;;;;;;61.93;25.20;;;10.50;99.90;;;;;;5182037;28;20475;-52
2023/10/26 11:54:13;;;;;;;65.93;27.00;;;10.50;99.90;;;;;;5187064;28;20501;-50
2023/10/26 11:56:44;;;;;;;37.97;20.60;;;10.50;99.90;;;;;;5185947;28;20547;-50
2023/10/26 11:59:15;;;;;;;38.60;19.83;;;10.50;99.90;;;;;;5181991;28;20451;-52
2023/10/26 12:01:45;;;;;;;37.33;20.53;;;10.60;99.90;;;;;;5182531;28;20211;-50
2023/10/26 12:04:16;;;;;;;31.57;17.97;;;10.60;99.90;;;;;;5191904;28;20442;-50
2023/10/26 12:06:47;;;;;;;25.60;17.07;;;10.70;99.90;;;;;;5188267;28;20246;-50
2023/10/26 12:09:17;;;;;;;30.13;18.43;;;10.80;99.90;;;;;;5187262;28;20235;-50
2023/10/26 12:11:48;;;;;;;48.40;22.70;;;10.80;99.90;;;;;;5177888;28;20295;-50
2023/10/26 12:14:20;;;;;;;29.13;17.00;;;10.80;99.90;;;;;;5180902;28;20212;-49
2023/10/26 12:16:52;;;;;;;32.10;19.23;;;10.80;99.90;;;;;;5181076;28;20574;-51
2023/10/26 12:19:23;;;;;;;35.20;19.90;;;10.70;99.90;;;;;;5184577;28;20540;-51
2023/10/26 12:21:54;;;;;;;32.43;17.50;;;10.70;99.90;;;;;;5187153;28;20463;-50
2023/10/26 12:24:25;;;;;;;55.60;23.17;;;10.60;99.90;;;;;;5185443;28;20199;-52
2023/10/26 12:26:59;;;;;;;51.27;26.17;;;10.60;99.90;;;;;;5185101;28;20188;-51
2023/10/26 12:29:31;;;;;;;33.47;19.87;;;10.60;99.90;;;;;;5184081;28;20211;-52
2023/10/26 12:32:02;;;;;;;25.27;16.00;;;10.60;99.90;;;;;;5182657;28;20468;-53
2023/10/26 12:34:33;;;;;;;48.60;21.83;;;10.50;99.90;;;;;;5180829;28;20470;-51
2023/10/26 12:37:04;;;;;;;120.13;65.97;;;10.60;99.90;;;;;;5181707;28;20205;-50
2023/10/26 12:39:35;;;;;;;54.70;29.40;;;10.60;99.90;;;;;;5176638;28;20621;-52
2023/10/26 12:42:06;;;;;;;48.47;27.00;;;10.60;99.90;;;;;;5181256;28;20518;-50
2023/10/26 12:44:37;;;;;;;29.60;16.07;;;10.60;99.90;;;;;;5182319;28;20192;-50
2023/10/26 12:47:08;;;;;;;72.23;32.80;;;10.60;99.90;;;;;;5180544;28;20243;-52
2023/10/26 12:49:38;;;;;;;41.70;21.83;;;10.50;99.90;;;;;;5193922;28;20225;-51
2023/10/26 12:52:09;;;;;;;19.90;14.47;;;10.50;99.90;;;;;;5183722;28;20199;-52
2023/10/26 12:54:40;;;;;;;22.30;13.93;;;10.40;99.90;;;;;;5182386;28;20684;-50
2023/10/26 12:57:10;;;;;;;35.87;16.53;;;10.40;99.90;;;;;;5180842;28;20188;-52